createdAt,value
2023-04-25T00:01:24.840Z,5.33
2023-04-25T00:04:12.751Z,5.10
2023-04-25T00:07:03.587Z,4.90
2023-04-25T00:09:50.397Z,5.00
2023-04-25T00:12:36.873Z,5.13
2023-04-25T00:15:23.848Z,5.23
2023-04-25T00:18:12.227Z,4.77
2023-04-25T00:20:58.847Z,5.07
2023-04-25T00:23:46.692Z,5.80
2023-04-25T00:26:33.117Z,5.40
2023-04-25T00:29:19.403Z,5.10
2023-04-25T00:32:06.086Z,5.47
2023-04-25T00:34:54.336Z,5.20
2023-04-25T00:37:41.038Z,5.10
2023-04-25T00:40:27.966Z,4.83
2023-04-25T00:43:14.567Z,4.97
2023-04-25T00:46:02.435Z,4.87
2023-04-25T00:48:49.457Z,5.27
2023-04-25T00:51:37.666Z,5.60
2023-04-25T00:54:24.880Z,5.37
2023-04-25T00:57:11.894Z,5.20
2023-04-25T00:59:58.795Z,5.13
2023-04-25T01:02:46.517Z,5.43
2023-04-25T01:05:33.864Z,5.70
2023-04-25T01:08:23.728Z,5.10
2023-04-25T01:11:10.316Z,18.17
2023-04-25T01:13:56.947Z,7.80
2023-04-25T01:16:45.817Z,5.53
2023-04-25T01:19:32.983Z,5.43
2023-04-25T01:22:21.760Z,5.53
2023-04-25T01:25:10.165Z,5.27
2023-04-25T01:27:56.902Z,5.53
2023-04-25T01:30:43.762Z,5.20
2023-04-25T01:33:31.384Z,6.10
2023-04-25T01:36:18.347Z,5.43
2023-04-25T01:39:07.135Z,5.77
2023-04-25T01:41:53.951Z,5.83
2023-04-25T01:44:40.830Z,5.37
2023-04-25T01:47:27.270Z,5.30
2023-04-25T01:50:13.820Z,5.40
2023-04-25T01:53:00.337Z,6.27
2023-04-25T01:55:48.757Z,4.77
2023-04-25T01:58:35.417Z,4.73
2023-04-25T02:01:21.911Z,4.77
2023-04-25T02:04:08.492Z,5.20
2023-04-25T02:06:55.241Z,4.97
2023-04-25T02:09:41.672Z,4.83
2023-04-25T02:12:29.686Z,4.90
2023-04-25T02:15:16.298Z,4.73
2023-04-25T02:18:03.023Z,4.93
2023-04-25T02:20:49.732Z,4.50
2023-04-25T02:23:36.547Z,5.27
2023-04-25T02:26:24.751Z,4.80
2023-04-25T02:29:12.776Z,4.70
2023-04-25T02:31:59.445Z,4.83
2023-04-25T02:34:46.011Z,4.30
2023-04-25T02:37:32.743Z,4.90
2023-04-25T02:40:19.511Z,5.50
2023-04-25T02:43:05.999Z,4.20
2023-04-25T02:45:53.872Z,5.20
2023-04-25T02:48:40.549Z,5.07
2023-04-25T02:51:27.303Z,4.73
2023-04-25T02:54:13.729Z,4.80
2023-04-25T02:57:00.345Z,5.37
2023-04-25T02:59:46.764Z,4.57
2023-04-25T03:02:34.807Z,4.73
2023-04-25T03:05:21.721Z,4.37
2023-04-25T03:08:08.296Z,4.87
2023-04-25T03:10:56.486Z,4.87
2023-04-25T03:13:42.834Z,4.10
2023-04-25T03:16:29.210Z,4.13
2023-04-25T03:19:18.004Z,4.57
2023-04-25T03:22:04.695Z,4.87
2023-04-25T03:24:51.338Z,4.83
2023-04-25T03:27:38.190Z,4.80
2023-04-25T03:30:24.873Z,4.47
2023-04-25T03:33:11.648Z,4.73
2023-04-25T03:35:59.719Z,4.40
2023-04-25T03:38:46.466Z,4.40
2023-04-25T03:41:32.777Z,4.50
2023-04-25T03:44:19.212Z,5.00
2023-04-25T03:47:06.089Z,5.20
2023-04-25T03:49:52.977Z,6.57
2023-04-25T03:52:40.793Z,5.47
2023-04-25T03:55:27.551Z,4.43
2023-04-25T03:58:14.107Z,5.30
2023-04-25T04:01:00.536Z,5.00
2023-04-25T04:03:47.250Z,4.57
2023-04-25T04:06:34.901Z,5.67
2023-04-25T04:09:22.813Z,5.03
2023-04-25T04:12:09.373Z,4.90
2023-04-25T04:14:55.887Z,5.30
2023-04-25T04:17:42.609Z,4.73
2023-04-25T04:20:29.217Z,5.13
2023-04-25T04:23:15.743Z,5.87
2023-04-25T04:26:03.489Z,5.07
2023-04-25T04:28:51.342Z,5.00
2023-04-25T04:31:37.775Z,4.90
2023-04-25T04:34:25.779Z,4.70
2023-04-25T04:37:14.068Z,5.47
2023-04-25T04:40:00.736Z,7.10
2023-04-25T04:42:48.952Z,5.20
2023-04-25T04:45:35.769Z,5.80
2023-04-25T04:48:22.830Z,5.97
2023-04-25T04:51:09.353Z,5.60
2023-04-25T04:53:59.245Z,7.17
2023-04-25T04:56:45.732Z,11.00
2023-04-25T04:59:34.127Z,11.13
2023-04-25T05:02:20.720Z,12.13
2023-04-25T05:05:07.567Z,9.23
2023-04-25T05:07:54.196Z,6.53
2023-04-25T05:10:40.709Z,11.97
2023-04-25T05:13:27.109Z,7.73
2023-04-25T05:16:15.228Z,8.87
2023-04-25T05:19:01.987Z,10.27
2023-04-25T05:21:48.490Z,17.17
2023-04-25T05:24:34.859Z,11.38
2023-04-25T05:27:22.257Z,7.13
2023-04-25T05:30:10.041Z,7.35
2023-04-25T05:32:58.119Z,6.15
2023-04-25T05:35:44.783Z,6.57
2023-04-25T05:38:33.224Z,5.35
2023-04-25T05:41:21.206Z,5.55
2023-04-25T05:44:07.670Z,5.43
2023-04-25T05:46:54.429Z,5.97
2023-04-25T05:49:42.553Z,5.90
2023-04-25T05:52:29.207Z,5.20
2023-04-25T05:55:16.644Z,5.20
2023-04-25T05:58:03.091Z,5.25
2023-04-25T06:00:49.764Z,5.63
2023-04-25T06:03:37.853Z,4.60
2023-04-25T06:06:26.601Z,6.00
2023-04-25T06:09:14.459Z,5.75
2023-04-25T06:12:01.491Z,5.63
2023-04-25T06:14:48.599Z,5.70
2023-04-25T06:17:36.297Z,5.63
2023-04-25T06:20:24.945Z,6.07
2023-04-25T06:23:12.621Z,6.00
2023-04-25T06:25:59.411Z,5.63
2023-04-25T06:28:45.908Z,6.50
2023-04-25T06:31:33.691Z,6.55
2023-04-25T06:34:20.298Z,5.70
2023-04-25T06:37:06.764Z,5.20
2023-04-25T06:39:54.457Z,5.72
2023-04-25T06:42:41.044Z,5.68
2023-04-25T06:45:27.467Z,5.40
2023-04-25T06:48:13.802Z,6.63
2023-04-25T06:51:00.240Z,5.80
2023-04-25T06:53:46.587Z,5.68
2023-04-25T06:56:34.140Z,5.05
2023-04-25T06:59:20.752Z,5.70
2023-04-25T07:02:07.573Z,4.30
2023-04-25T07:04:54.183Z,3.83
2023-04-25T07:07:40.963Z,3.40
2023-04-25T07:10:28.021Z,3.15
2023-04-25T07:13:15.940Z,2.58
2023-04-25T07:16:02.395Z,2.75
2023-04-25T07:18:49.226Z,2.58
2023-04-25T07:21:37.364Z,3.03
2023-04-25T07:24:24.252Z,2.63
2023-04-25T07:27:10.851Z,2.90
2023-04-25T07:29:58.923Z,3.08
2023-04-25T07:32:46.406Z,3.55
2023-04-25T07:35:33.190Z,3.85
2023-04-25T07:38:19.759Z,2.97
2023-04-25T07:41:06.556Z,3.45
2023-04-25T07:43:52.813Z,2.90
2023-04-25T07:46:40.745Z,3.40
2023-04-25T07:49:27.088Z,3.30
2023-04-25T07:52:13.647Z,3.13
2023-04-25T07:55:01.388Z,3.05
2023-04-25T07:57:47.835Z,3.33
2023-04-25T08:00:34.139Z,2.85
2023-04-25T08:03:22.463Z,3.30
2023-04-25T08:06:10.298Z,3.53
2023-04-25T08:08:58.953Z,3.08
2023-04-25T08:11:45.319Z,3.13
2023-04-25T08:14:36.783Z,3.10
2023-04-25T08:17:23.334Z,2.95
2023-04-25T08:20:12.056Z,3.35
2023-04-25T08:22:58.432Z,3.15
2023-04-25T08:25:44.990Z,3.30
2023-04-25T08:28:31.420Z,4.78
2023-04-25T08:31:18.009Z,3.60
2023-04-25T08:34:04.775Z,4.32
2023-04-25T08:36:52.520Z,3.58
2023-04-25T08:39:39.241Z,3.55
2023-04-25T08:42:28.839Z,3.78
2023-04-25T08:45:15.894Z,4.43
2023-04-25T08:48:06.878Z,3.88
2023-04-25T08:50:55.283Z,3.72
2023-04-25T08:53:46.151Z,4.45
2023-04-25T08:56:35.911Z,6.47
2023-04-25T08:59:24.522Z,5.00
2023-04-25T09:02:15.424Z,5.67
2023-04-25T09:05:02.157Z,4.80
2023-04-25T09:07:50.662Z,4.57
2023-04-25T09:10:40.007Z,5.73
2023-04-25T09:13:27.997Z,5.72
2023-04-25T09:16:18.407Z,5.43
2023-04-25T09:19:05.370Z,4.47
2023-04-25T09:21:52.092Z,5.82
2023-04-25T09:24:39.873Z,4.78
2023-04-25T09:27:28.152Z,5.35
2023-04-25T09:30:18.117Z,5.03
2023-04-25T09:33:08.770Z,5.43
2023-04-25T09:35:57.499Z,5.65
2023-04-25T09:38:45.692Z,5.60
2023-04-25T09:41:32.008Z,5.50
2023-04-25T09:44:25.631Z,5.95
2023-04-25T09:47:13.643Z,5.63
2023-04-25T09:50:00.446Z,5.03
2023-04-25T09:53:05.581Z,5.32
2023-04-25T09:55:53.281Z,4.38
2023-04-25T09:58:40.812Z,4.20
2023-04-25T10:01:29.619Z,4.72
2023-04-25T10:04:20.932Z,4.18
2023-04-25T10:07:08.805Z,4.45
2023-04-25T10:10:01.664Z,5.20
2023-04-25T10:12:48.146Z,4.63
2023-04-25T10:15:39.844Z,4.43
2023-04-25T10:18:29.656Z,4.00
2023-04-25T10:21:17.920Z,4.80
2023-04-25T10:24:04.959Z,4.87
2023-04-25T10:26:52.165Z,5.20
2023-04-25T10:29:38.649Z,5.07
2023-04-25T10:32:25.859Z,4.70
2023-04-25T10:35:16.365Z,4.73
2023-04-25T10:38:06.032Z,4.87
2023-04-25T10:41:06.113Z,5.20
2023-04-25T10:44:02.297Z,4.30
2023-04-25T10:46:49.323Z,4.43
2023-04-25T10:49:37.943Z,4.00
2023-04-25T10:52:30.758Z,4.73
2023-04-25T10:55:17.048Z,4.47
2023-04-25T10:58:03.761Z,3.73
2023-04-25T11:00:57.488Z,3.90
2023-04-25T11:03:46.330Z,3.77
2023-04-25T11:06:43.865Z,3.40
2023-04-25T11:09:32.109Z,3.13
2023-04-25T11:12:18.901Z,3.33
2023-04-25T11:15:09.387Z,3.07
2023-04-25T11:17:57.099Z,3.33
2023-04-25T11:20:45.743Z,3.23
2023-04-25T11:23:32.617Z,3.63
2023-04-25T11:26:21.792Z,3.23
2023-04-25T11:29:08.064Z,3.60
2023-04-25T11:31:56.871Z,3.10
2023-04-25T11:34:46.048Z,3.03
2023-04-25T11:37:32.485Z,3.63
2023-04-25T11:40:18.864Z,2.92
2023-04-25T11:43:07.211Z,2.95
2023-04-25T11:45:53.909Z,3.10
2023-04-25T11:48:41.069Z,2.85
2023-04-25T11:51:28.028Z,3.50
2023-04-25T11:54:15.299Z,3.03
2023-04-25T11:57:02.505Z,3.13
2023-04-25T11:59:50.615Z,3.22
2023-04-25T12:02:37.718Z,2.85
2023-04-25T12:05:32.776Z,2.83
2023-04-25T12:08:20.959Z,2.40
2023-04-25T12:11:07.516Z,2.55
2023-04-25T12:13:54.861Z,2.80
2023-04-25T12:16:47.215Z,2.67
2023-04-25T12:19:35.537Z,3.20
2023-04-25T12:22:23.521Z,2.70
2023-04-25T12:25:10.705Z,3.17
2023-04-25T12:27:57.142Z,2.70
2023-04-25T12:30:59.708Z,2.77
2023-04-25T12:33:48.910Z,2.67
2023-04-25T12:36:36.078Z,2.57
2023-04-25T12:39:24.337Z,2.70
2023-04-25T12:42:12.539Z,2.77
2023-04-25T12:44:58.826Z,2.50
2023-04-25T12:47:45.398Z,2.77
2023-04-25T12:50:33.246Z,2.90
2023-04-25T12:53:20.832Z,2.67
2023-04-25T12:56:08.665Z,3.78
2023-04-25T12:58:55.587Z,3.00
2023-04-25T13:01:42.156Z,2.65
2023-04-25T13:04:29.191Z,3.47
2023-04-25T13:07:17.668Z,3.53
2023-04-25T13:10:04.407Z,2.70
2023-04-25T13:12:51.456Z,2.42
2023-04-25T13:15:39.667Z,3.15
2023-04-25T13:18:28.317Z,3.22
2023-04-25T13:21:14.928Z,2.60
2023-04-25T13:24:02.618Z,2.47
2023-04-25T13:26:49.187Z,2.50
2023-04-25T13:29:36.567Z,2.80
2023-04-25T13:32:23.254Z,2.30
2023-04-25T13:35:11.906Z,2.93
2023-04-25T13:37:58.718Z,2.97
2023-04-25T13:40:46.564Z,2.97
2023-04-25T13:43:34.877Z,3.40
2023-04-25T13:46:40.884Z,2.70
2023-04-25T13:49:27.678Z,2.20
2023-04-25T13:52:14.078Z,2.70
2023-04-25T13:55:01.324Z,2.65
2023-04-25T13:57:49.420Z,2.40
2023-04-25T14:00:39.420Z,2.15
2023-04-25T14:03:26.019Z,2.10
2023-04-25T14:06:13.450Z,3.50
2023-04-25T14:09:01.462Z,2.45
2023-04-25T14:11:47.756Z,2.23
2023-04-25T14:14:35.518Z,2.22
2023-04-25T14:17:22.055Z,3.03
2023-04-25T14:20:11.881Z,2.53
2023-04-25T14:22:59.151Z,2.70
2023-04-25T14:25:46.104Z,3.30
2023-04-25T14:28:32.839Z,3.20
2023-04-25T14:31:20.905Z,2.47
2023-04-25T14:34:07.442Z,2.30
2023-04-25T14:36:54.146Z,2.67
2023-04-25T14:39:40.555Z,2.70
2023-04-25T14:42:27.111Z,2.70
2023-04-25T14:45:14.043Z,3.00
2023-04-25T14:48:02.339Z,2.80
2023-04-25T14:50:48.990Z,4.72
2023-04-25T14:53:35.455Z,3.00
2023-04-25T14:56:21.817Z,2.53
2023-04-25T14:59:08.520Z,3.30
2023-04-25T15:01:56.611Z,2.63
2023-04-25T15:04:46.086Z,11.68
2023-04-25T15:07:32.923Z,4.22
2023-04-25T15:10:20.697Z,2.70
2023-04-25T15:13:07.480Z,2.53
2023-04-25T15:15:55.158Z,2.63
2023-04-25T15:18:41.999Z,3.03
2023-04-25T15:21:29.699Z,2.80
2023-04-25T15:24:17.129Z,2.70
2023-04-25T15:27:03.700Z,2.93
2023-04-25T15:29:50.105Z,2.80
2023-04-25T15:32:36.799Z,3.00
2023-04-25T15:35:23.301Z,2.50
2023-04-25T15:38:12.278Z,2.70
2023-04-25T15:40:58.993Z,2.57
2023-04-25T15:43:46.183Z,3.10
2023-04-25T15:46:32.752Z,3.83
2023-04-25T15:49:21.618Z,2.43
2023-04-25T15:52:08.278Z,2.70
2023-04-25T15:54:56.090Z,3.10
2023-04-25T15:57:42.922Z,2.40
2023-04-25T16:00:29.494Z,2.60
2023-04-25T16:03:16.619Z,2.83
2023-04-25T16:06:03.344Z,2.80
2023-04-25T16:08:49.801Z,2.90
2023-04-25T16:11:37.611Z,2.97
2023-04-25T16:14:24.444Z,4.07
2023-04-25T16:17:11.084Z,3.03
2023-04-25T16:19:59.185Z,2.73
2023-04-25T16:22:45.913Z,2.67
2023-04-25T16:25:32.446Z,3.00
2023-04-25T16:28:20.505Z,2.77
2023-04-25T16:31:07.740Z,2.50
2023-04-25T16:33:56.219Z,2.00
2023-04-25T16:36:42.725Z,2.57
2023-04-25T16:39:29.276Z,2.70
2023-04-25T16:42:15.722Z,2.47
2023-04-25T16:45:04.885Z,2.50
2023-04-25T16:47:51.277Z,2.27
2023-04-25T16:50:37.694Z,3.03
2023-04-25T16:53:24.172Z,2.50
2023-04-25T16:56:10.790Z,2.87
2023-04-25T16:58:57.233Z,3.33
2023-04-25T17:01:45.062Z,2.80
2023-04-25T17:04:31.516Z,3.03
2023-04-25T17:07:19.521Z,2.53
2023-04-25T17:10:06.649Z,3.03
2023-04-25T17:12:53.584Z,3.27
2023-04-25T17:15:40.485Z,2.40
2023-04-25T17:18:29.136Z,2.40
2023-04-25T17:21:16.154Z,3.40
2023-04-25T17:24:09.782Z,2.90
2023-04-25T17:26:57.261Z,2.30
2023-04-25T17:29:44.310Z,2.70
2023-04-25T17:32:31.083Z,2.33
2023-04-25T17:35:19.223Z,2.50
2023-04-25T17:38:05.928Z,2.20
2023-04-25T17:40:52.374Z,2.10
2023-04-25T17:43:38.679Z,5.33
2023-04-25T17:46:26.754Z,2.40
2023-04-25T17:49:13.460Z,1.93
2023-04-25T17:52:01.390Z,2.10
2023-04-25T17:54:49.626Z,2.10
2023-04-25T17:57:36.423Z,2.43
2023-04-25T18:00:23.053Z,2.17
2023-04-25T18:03:09.811Z,2.10
2023-04-25T18:05:56.262Z,2.23
2023-04-25T18:08:44.712Z,2.50
2023-04-25T18:11:31.913Z,5.70
2023-04-25T18:14:20.338Z,8.73
2023-04-25T18:17:07.204Z,2.43
2023-04-25T18:19:53.736Z,2.90
2023-04-25T18:22:40.456Z,2.30
2023-04-25T18:25:28.105Z,2.50
2023-04-25T18:28:14.775Z,2.53
2023-04-25T18:31:01.342Z,2.60
2023-04-25T18:33:47.694Z,4.47
2023-04-25T18:36:34.000Z,3.17
2023-04-25T18:39:22.921Z,3.13
2023-04-25T18:42:11.740Z,2.80
2023-04-25T18:44:58.168Z,3.40
2023-04-25T18:47:49.133Z,2.90
2023-04-25T18:50:36.218Z,2.90
2023-04-25T18:53:24.984Z,2.53
2023-04-25T18:56:11.613Z,3.00
2023-04-25T18:58:59.294Z,2.50
2023-04-25T19:01:46.058Z,2.70
2023-04-25T19:04:32.832Z,2.80
2023-04-25T19:07:20.833Z,2.20
2023-04-25T19:10:09.243Z,2.73
2023-04-25T19:12:56.255Z,6.40
2023-04-25T19:15:44.463Z,5.60
2023-04-25T19:18:30.960Z,3.13
2023-04-25T19:21:20.622Z,3.00
2023-04-25T19:24:08.347Z,2.70
2023-04-25T19:26:54.942Z,2.90
2023-04-25T19:29:45.894Z,3.23
2023-04-25T19:32:33.995Z,2.70
2023-04-25T19:35:20.788Z,18.17
2023-04-25T19:38:07.581Z,3.10
2023-04-25T19:40:56.333Z,3.00
2023-04-25T19:43:43.044Z,2.50
2023-04-25T19:46:29.389Z,2.53
2023-04-25T19:49:17.216Z,2.70
2023-04-25T19:52:05.088Z,2.23
2023-04-25T19:54:52.208Z,3.03
2023-04-25T19:57:39.044Z,2.57
2023-04-25T20:00:26.819Z,2.93
2023-04-25T20:03:13.323Z,3.20
2023-04-25T20:06:01.696Z,2.60
2023-04-25T20:08:49.268Z,3.17
2023-04-25T20:11:35.719Z,2.97
2023-04-25T20:14:22.202Z,2.50
2023-04-25T20:17:10.983Z,3.20
2023-04-25T20:19:57.663Z,2.70
2023-04-25T20:22:45.335Z,2.73
2023-04-25T20:25:31.745Z,2.73
2023-04-25T20:28:18.251Z,3.00
2023-04-25T20:31:05.100Z,2.63
2023-04-25T20:33:51.558Z,3.20
2023-04-25T20:36:38.058Z,2.67
2023-04-25T20:39:25.754Z,3.40
2023-04-25T20:42:12.054Z,5.27
2023-04-25T20:44:58.794Z,2.90
2023-04-25T20:47:45.574Z,2.80
2023-04-25T20:50:32.367Z,3.00
2023-04-25T20:53:19.465Z,2.57
2023-04-25T20:56:07.974Z,2.40
2023-04-25T20:58:55.702Z,2.80
2023-04-25T21:01:42.190Z,2.60
2023-04-25T21:04:28.905Z,2.97
2023-04-25T21:07:15.640Z,2.97
2023-04-25T21:10:02.512Z,2.80
2023-04-25T21:12:52.358Z,2.50
2023-04-25T21:15:39.099Z,13.57
2023-04-25T21:18:25.829Z,3.73
2023-04-25T21:21:12.513Z,2.80
2023-04-25T21:23:59.720Z,2.70
2023-04-25T21:26:46.363Z,2.60
2023-04-25T21:29:34.398Z,2.50
2023-04-25T21:32:21.804Z,2.70
2023-04-25T21:35:08.698Z,2.70
2023-04-25T21:37:55.309Z,2.80
2023-04-25T21:40:42.110Z,2.57
2023-04-25T21:43:28.660Z,2.60
2023-04-25T21:46:23.308Z,2.70
2023-04-25T21:49:10.273Z,2.80
2023-04-25T21:51:57.393Z,3.07
2023-04-25T21:54:44.196Z,3.07
2023-04-25T21:57:30.516Z,2.90
2023-04-25T22:00:27.607Z,2.67
2023-04-25T22:03:16.226Z,2.83
2023-04-25T22:06:03.853Z,2.80
2023-04-25T22:08:50.449Z,2.63
2023-04-25T22:11:37.181Z,2.60
2023-04-25T22:14:25.016Z,2.30
2023-04-25T22:17:12.280Z,2.60
2023-04-25T22:20:00.669Z,2.50
2023-04-25T22:22:47.236Z,3.17
2023-04-25T22:25:35.454Z,2.90
2023-04-25T22:28:22.745Z,3.20
2023-04-25T22:31:43.130Z,2.20
2023-04-25T22:34:29.806Z,2.90
2023-04-25T22:37:17.905Z,2.73
2023-04-25T22:40:06.747Z,3.50
2023-04-25T22:42:53.612Z,2.67
2023-04-25T22:45:43.212Z,2.70
2023-04-25T22:48:29.747Z,2.73
2023-04-25T22:51:16.856Z,3.13
2023-04-25T22:54:05.471Z,2.90
2023-04-25T22:56:52.277Z,2.63
2023-04-25T22:59:38.980Z,2.93
2023-04-25T23:02:26.043Z,3.30
2023-04-25T23:05:15.367Z,2.60
2023-04-25T23:08:01.800Z,2.60
2023-04-25T23:10:49.829Z,4.63
2023-04-25T23:13:37.193Z,5.20
2023-04-25T23:16:23.726Z,2.57
2023-04-25T23:19:10.584Z,2.40
2023-04-25T23:21:58.203Z,2.73
2023-04-25T23:24:44.857Z,2.40
2023-04-25T23:27:32.950Z,2.57
2023-04-25T23:30:20.204Z,2.40
2023-04-25T23:33:06.581Z,2.50
2023-04-25T23:35:52.977Z,2.93
2023-04-25T23:38:39.441Z,2.83
2023-04-25T23:41:26.080Z,2.93
2023-04-25T23:44:14.329Z,2.73
2023-04-25T23:47:01.100Z,2.70
2023-04-25T23:49:47.416Z,2.47
2023-04-25T23:52:33.803Z,2.60
2023-04-25T23:55:20.334Z,3.67
2023-04-25T23:58:07.794Z,2.90
